»·PEaware :: N142DA KPOC-KSBA

N142DA :: KPOC-KSBA

FLIGHT INFORMATION

Flight Status: Arrived
Operator: Privately registered:
United States
More flights under this callsign
Pilot: Andrew O. (43595)
Aircraft: BEECH AIRCRAFT BONANZA
(BE35)
More flights by this aircraft type
Origin: KPOC Brackett
United States
Destination: KSBA Santa Barbara Mun
United States
More flights between these airports :: More routes between these airports
Route:
File this flight plan on PilotEdge
Remarks:
Altitude:
(Current/Filed)
6,500ft
Speed:
(Current/Filed)
0kts
Departed: 07-Nov-23 09:51 PM
Arrived: 07-Nov-23 10:35 PM
Distance/Time
Traveled:
104nm/0:43
Distance/Time
To Go:
Arrived

Flight Plot

Page will automatically refresh every two minutes.

Flight plan parsing failed; only flown route is shown


Map Options




Map Legend


Flown Route
Filed Route
Departure Airport
Arrival Airport
Navaid (VOR, NDB)
Fix

Horizontal Profiles

Position Reports

Time Latitude Longitude Heading Altitude Ground
Speed
07-Nov-23 21:38 34.089353 -117.777470 183 1001ft 0kts
07-Nov-23 21:39 34.089353 -117.777470 183 1009ft 0kts
07-Nov-23 21:40 34.089353 -117.777470 183 1009ft 0kts
07-Nov-23 21:41 34.089353 -117.777470 183 1009ft 0kts
07-Nov-23 21:42 34.089353 -117.777470 183 1009ft 0kts
07-Nov-23 21:43 34.089353 -117.777470 183 1009ft 0kts
07-Nov-23 21:44 34.089353 -117.777470 183 1009ft 0kts
07-Nov-23 21:45 34.089349 -117.777470 181 1009ft 0kts
07-Nov-23 21:46 34.089895 -117.776583 94 1011ft 5kts
07-Nov-23 21:47 34.090305 -117.774800 70 1016ft 2kts
07-Nov-23 21:48 34.090444 -117.774643 358 1016ft 0kts
07-Nov-23 21:49 34.090444 -117.774643 358 1016ft 0kts
07-Nov-23 21:50 34.091553 -117.789847 274 1275ft 97kts
07-Nov-23 21:51 34.093399 -117.824598 285 2821ft 107kts
07-Nov-23 21:52 34.100800 -117.858198 281 4260ft 105kts
07-Nov-23 21:53 34.103040 -117.893714 289 5447ft 107kts
07-Nov-23 21:54 34.118075 -117.924354 299 6543ft 112kts
07-Nov-23 21:55 34.131655 -117.967462 273 6517ft 156kts
07-Nov-23 21:56 34.135888 -118.018934 283 6485ft 154kts
07-Nov-23 21:57 34.147330 -118.068270 298 6471ft 146kts
07-Nov-23 21:59 34.167141 -118.110305 302 6628ft 142kts
07-Nov-23 22:00 34.187031 -118.152311 302 6660ft 151kts
07-Nov-23 22:01 34.208308 -118.197365 302 6507ft 152kts
07-Nov-23 22:02 34.228965 -118.241479 302 6506ft 150kts
07-Nov-23 22:03 34.248800 -118.285952 298 6507ft 152kts
07-Nov-23 22:04 34.269372 -118.330228 305 6507ft 152kts
07-Nov-23 22:05 34.279851 -118.380171 286 6498ft 155kts
07-Nov-23 22:06 34.287875 -118.431739 285 6508ft 156kts
07-Nov-23 22:07 34.295888 -118.483461 285 6509ft 157kts
07-Nov-23 22:08 34.303908 -118.535421 285 6503ft 156kts
07-Nov-23 22:09 34.311827 -118.586899 285 6505ft 155kts
07-Nov-23 22:10 34.319719 -118.638288 285 6507ft 156kts
07-Nov-23 22:11 34.327742 -118.690701 284 6511ft 159kts
07-Nov-23 22:12 34.335678 -118.742750 284 6512ft 155kts
07-Nov-23 22:13 34.343596 -118.794772 284 6521ft 159kts
07-Nov-23 22:14 34.351547 -118.847189 285 6516ft 157kts
07-Nov-23 22:15 34.358188 -118.899572 279 6517ft 159kts
07-Nov-23 22:16 34.362314 -118.953203 281 6518ft 159kts
07-Nov-23 22:17 34.361997 -119.007354 271 6511ft 161kts
07-Nov-23 22:18 34.360124 -119.061578 271 6511ft 160kts
07-Nov-23 22:19 34.358311 -119.116504 272 6064ft 164kts
07-Nov-23 22:20 34.358625 -119.172273 275 5561ft 166kts
07-Nov-23 22:21 34.360361 -119.229558 276 4767ft 178kts
07-Nov-23 22:22 34.362112 -119.286704 276 4484ft 160kts
07-Nov-23 22:23 34.363072 -119.339475 275 4478ft 156kts
07-Nov-23 22:24 34.363725 -119.392872 275 4474ft 156kts
07-Nov-23 22:25 34.364326 -119.446719 275 3970ft 166kts
07-Nov-23 22:26 34.367305 -119.502563 283 3387ft 167kts
07-Nov-23 22:27 34.374772 -119.558869 287 2577ft 171kts
07-Nov-23 22:28 34.387341 -119.609988 290 2495ft 151kts
07-Nov-23 22:29 34.404122 -119.653358 301 2664ft 149kts
07-Nov-23 22:29 34.419564 -119.689916 304 2011ft 135kts
07-Nov-23 22:30 34.428673 -119.724481 276 1921ft 98kts
07-Nov-23 22:32 34.428932 -119.766069 277 1398ft 111kts
07-Nov-23 22:33 34.428462 -119.799555 271 738ft 82kts
07-Nov-23 22:34 34.428006 -119.826252 276 186ft 74kts
07-Nov-23 22:34 34.427754 -119.842755 269 16ft 31kts
07-Nov-23 22:35 34.428598 -119.845940 44 14ft 9kts
07-Nov-23 22:36 34.429101 -119.845797 140 16ft 0kts

Navigation Log

Ident Type
Flight plan parsing failed, navigation log unavailable